• Join FlightAware (Why Join?)
  • Login
  • US Flag 
09:28AM EDT


 

Airport Tracker/Info


-or-


 

Live Flight TrackerFlight Track Log ✈ UAL4695 ✈ 24-Apr-2013 ✈ KSAV - KEWR

Flight Track Log - Related Links

Times and Time Zones

All times are in EDT time to prevent confusion due to time zone crossing. See the UAL4695 flight status page for this flight to view local times or setup timezone preferences in your user account.

Time Position Orientation Groundspeed Altitude Reporting Facility
EDT Latitude Longitude Course Direction KTS MPH feet Rate Location/Type
06:45PM 32.1978 -81.1103 North 243 280 4,400  Level Jacksonville Center
06:46PM 32.2564 -81.1264 347° North 250 288 7,000 2,220 Climbing Jacksonville Center
06:47PM 32.3319 -81.1394 352° North 261 300 8,900 1,800 Climbing Jacksonville Center
06:48PM 32.6569 -81.1500 North  Level FlightAware Approximate
06:48PM 32.4197 -81.1550 351° North 288 331 10,600  Level Jacksonville Center
06:49PM 32.7661 -81.1418 North  Level FlightAware Approximate
06:49PM 32.5097 -81.1681 353° North 306 352 11,500  Level Jacksonville Center
06:50PM 32.8750 -81.1282 North  Level FlightAware Approximate
06:50PM 32.6036 -81.1639 North 353 406 12,500  Level Jacksonville Center
06:51PM 32.9840 -81.1152 North  Level FlightAware Approximate
06:51PM 32.7058 -81.1544 North 360 414 13,700  Level Jacksonville Center
06:52PM 32.8142 -81.1475 North 373 429 15,100 1,320 Climbing Jacksonville Center
06:53PM 32.9183 -81.1306 North 378 435 16,400 1,260 Climbing Jacksonville Center
06:54PM 33.0156 -81.0669 29° Northeast 378 435 17,700 1,020 Climbing Jacksonville Center
06:55PM 33.1125 -80.9978 31° Northeast 383 441 18,500 900 Climbing Jacksonville Center
06:56PM 33.2119 -80.9361 27° Northeast 393 452 19,500 960 Climbing Jacksonville Center
06:57PM 33.3172 -80.8642 30° Northeast 406 467 20,500 1,200 Climbing Jacksonville Center
06:58PM 33.4183 -80.7947 30° Northeast 419 482 21,900 1,500 Climbing Jacksonville Center
06:59PM 33.5217 -80.7300 28° Northeast 414 476 23,600 1,260 Climbing Jacksonville Center
07:00PM 33.6225 -80.6603 30° Northeast 414 476 24,500 900 Climbing Jacksonville Center
07:01PM 33.7236 -80.5928 29° Northeast 414 476 25,500 1,080 Climbing Jacksonville Center
07:02PM 33.8267 -80.5225 30° Northeast 414 476 26,700 1,260 Climbing Jacksonville Center
07:03PM 33.9256 -80.4522 31° Northeast 414 476 28,100 1,320 Climbing Jacksonville Center
07:04PM 34.0244 -80.3869 29° Northeast 409 471 29,400 1,080 Climbing Jacksonville Center
07:07PM 34.2700 -80.2208 29° Northeast 410 472 31,900 960 Climbing Washington Center
07:08PM 34.3728 -80.1511 29° Northeast 410 472 32,900 1,020 Climbing Washington Center
07:09PM 34.4733 -80.0836 29° Northeast 410 472 34,000 1,020 Climbing Washington Center
07:10PM 34.5722 -80.0108 31° Northeast 410 472 35,000 480 Climbing Washington Center
07:11PM 34.6725 -79.9456 28° Northeast 423 487 35,000  Level Washington Center
07:12PM 34.7797 -79.8681 31° Northeast 435 501 35,000  Level Washington Center
07:13PM 34.8953 -79.7881 30° Northeast 449 517 35,000  Level Washington Center
07:14PM 35.0106 -79.7078 30° Northeast 466 536 35,000  Level Washington Center
07:15PM 35.1261 -79.6272 30° Northeast 472 543 35,000  Level Washington Center
07:16PM 35.2414 -79.5467 30° Northeast 477 549 35,000  Level Washington Center
07:17PM 35.3569 -79.4631 31° Northeast 477 549 35,000  Level Washington Center
07:18PM 35.4722 -79.3794 31° Northeast 477 549 35,000  Level Washington Center
07:19PM 35.5833 -79.3003 30° Northeast 471 542 35,000  Level Washington Center
07:20PM 35.6964 -79.2136 32° Northeast 471 542 35,000  Level Washington Center
07:21PM 35.8117 -79.1292 31° Northeast 477 549 35,000  Level Washington Center
07:22PM 35.9375 -79.0375 31° Northeast 477 549 35,000  Level Washington Center
07:23PM 36.0547 -78.9525 30° Northeast 477 549 35,000  Level Washington Center
07:24PM 36.1675 -78.8672 31° Northeast 477 549 35,000  Level Washington Center
07:25PM 36.2825 -78.7844 30° Northeast 477 549 35,000 -600 Level Washington Center
07:26PM 36.3933 -78.6986 32° Northeast 477 549 33,800 -1,620 Descending Washington Center
07:27PM 36.5003 -78.5969 37° Northeast 477 549 31,800 -1,440 Descending Washington Center
07:28PM 36.5561 -78.4414 66° East 464 534 31,000 -420 Descending Washington Center
07:29PM 36.5975 -78.2747 73° East 469 540 31,000  Level Washington Center
07:30PM 36.6339 -78.1442 71° East 484 557 31,000 -360 Level Washington Center
07:31PM 36.6836 -77.9461 73° East 493 567 30,300 -540 Descending Washington Center
07:32PM 36.7264 -77.7869 71° East 493 567 30,000 -180 Descending Washington Center
07:33PM 36.7731 -77.6247 70° East 493 567 30,000  Level Washington Center
07:34PM 36.8567 -77.4947 51° Northeast 479 551 30,000  Level Washington Center
07:35PM 36.9806 -77.4456 18° North 436 502 30,000  Level Washington Center
07:36PM 37.1008 -77.4875 344° North 403 464 30,000  Level Washington Center
07:37PM 37.2211 -77.5272 345° North 421 484 30,000  Level Washington Center
07:38PM 37.3469 -77.4833 15° North 440 506 30,000  Level Washington Center
07:39PM 37.4689 -77.4183 23° Northeast 450 518 30,000  Level Washington Center
07:40PM 37.5931 -77.3531 23° Northeast 464 534 30,000  Level Washington Center
07:41PM 37.7150 -77.2850 24° Northeast 475 547 30,000  Level Washington Center
07:42PM 37.8136 -77.2319 23° Northeast 475 547 30,000  Level Washington Center
07:43PM 37.9608 -77.1536 23° Northeast 485 558 30,000  Level Washington Center
07:44PM 38.0825 -77.0875 23° Northeast 485 558 30,000  Level Washington Center
07:45PM 38.2064 -77.0186 24° Northeast 479 551 30,000  Level Washington Center
07:46PM 38.3133 -76.9625 22° Northeast 479 551 30,000  Level Washington Center
07:47PM 38.4392 -76.8958 23° Northeast 473 544 30,000  Level Washington Center
07:48PM 38.5608 -76.8264 24° Northeast 478 550 30,000  Level Washington Center
07:49PM 38.6972 -76.7433 25° Northeast 486 559 30,000  Level Washington Center
07:50PM 38.8025 -76.6333 39° Northeast 481 554 30,000  Level Washington Center
07:51PM 38.9036 -76.5144 42° Northeast 481 554 30,000 -60 Level Washington Center
07:52PM 39.0067 -76.3956 42° Northeast 486 559 29,900 -720 Descending Washington Center
07:53PM 39.1053 -76.2817 42° Northeast 486 559 28,600 -1,020 Descending Washington Center
07:54PM 39.1828 -76.1914 42° Northeast 480 552 27,900 -840 Descending Washington Center
07:55PM 39.3042 -76.0503 42° Northeast 480 552 27,000 -480 Descending Washington Center
07:56PM 39.4047 -75.9381 41° Northeast 480 552 27,000  Level Washington Center
07:57PM 39.5050 -75.8203 42° Northeast 475 547 27,000 -840 Level Washington Center
07:58PM 39.6072 -75.6992 42° Northeast 480 552 25,400 -2,040 Descending Washington Center
07:59PM 39.7072 -75.5781 43° Northeast 480 552 23,000 -2,580 Descending Washington Center
08:00PM 39.7989 -75.4644 44° Northeast 473 544 20,300 -2,940 Descending Washington Center
08:01PM 39.8944 -75.3508 42° Northeast 473 544 17,200 -3,120 Descending Washington Center
08:02PM 39.9817 -75.2422 44° Northeast 451 519 14,200 -1,980 Descending Washington Center
08:04PM 40.1372 -75.0514 43° Northeast 385 443 11,400 -1,320 Descending Washington Center
08:05PM 40.2014 -74.9722 43° Northeast 343 395 10,400 -1,020 Descending Washington Center
08:06PM 40.2614 -74.8983 43° Northeast 307 353 9,400 -780 Descending Washington Center
08:07PM 40.2547 -74.8222 97° East 223 257 8,900 -240 Descending Washington Center
08:08PM 40.2069 -74.8444 200° South 91 105 9,000  Climbing Washington Center
08:09PM 40.1678 -74.8939 224° Southwest 138 159 8,900  Descending Washington Center
08:10PM 40.1661 -74.9561 268° West 144 166 9,000  Climbing Washington Center
08:11PM 40.2242 -74.9447 North 108 124 9,000  Level Washington Center
08:12PM 40.2739 -74.8736 47° Northeast 182 209 9,000 -60 Level Washington Center
08:13PM 40.2319 -74.8281 140° Southeast 118 136 8,900 -60 Descending Washington Center
08:14PM 40.1925 -74.8719 220° Southwest 93 107 8,900  Level Washington Center
08:15PM 40.1594 -74.9236 230° Southwest 145 167 9,000  Climbing Washington Center
08:16PM 40.1911 -74.9722 310° West 136 157 9,000 -60 Level Washington Center
08:17PM 40.2511 -74.9119 37° Northeast 127 146 8,900  Descending Washington Center
08:18PM 40.2631 -74.8331 79° East 173 199 9,000  Climbing Washington Center
08:19PM 40.2133 -74.8389 185° South 87 100 9,000  Level Washington Center
08:20PM 40.1761 -74.8856 224° Southwest 122 140 9,000  Level Washington Center
08:21PM 40.1597 -74.9428 249° West 161 185 9,000  Level Washington Center
08:22PM 40.2139 -74.9586 347° North 112 129 9,000  Level Washington Center
08:23PM 40.2667 -74.9000 40° Northeast 284 327 9,000 -480 Level New York TRACON
08:24PM 40.3167 -74.8167 52° Northeast 315 362 8,100 -600 Descending New York TRACON
08:25PM 40.3833 -74.7333 44° Northeast 280 322 7,800 -600 Descending New York TRACON
08:26PM 40.4333 -74.6667 45° Northeast 273 314 6,900 -900 Descending New York TRACON
08:27PM 40.5000 -74.6500 11° North 262 302 6,100 -300 Descending New York TRACON
08:29PM 40.6500 -74.5833 19° North 262 302 6,100  Level New York TRACON
08:31PM 40.7833 -74.5333 16° North 260 299 6,100  Level New York TRACON